Rosendale, Missouri
Current Conditions -  °F | °C
As of 5:53 PM on Friday 28 Nov 2014 (Local Time) from KSTJ Reporting Station
Clear Clear  
Wind Chill: 41°   Ceiling: Unl
Heat Index: 45°   Visibility: 10mi
Dew Point: 32°   Wind: 8mph
Humidity: 60%   Direction: 160°SSE
Pressure: 29.75"   Gusts: NA
Location:  40.04°N, 94.82°W
Report Text: KSTJ 282353Z AUTO 16007KT 10SM CLR 07/00 A2975 RMK AO2 SLP080 T00720000 10139 20067 58011
Loading
Personal Weather Stations






























Interactive Weather Map New forecast layout! Learn more

10-Day Weather Forecast

Advertisements
Track Severe Weather on mobile